createdAt,value
2023-03-18T00:00:40.140Z,27.20
2023-03-18T00:04:18.275Z,25.20
2023-03-18T00:07:45.424Z,26.50
2023-03-18T00:11:14.131Z,27.30
2023-03-18T00:14:42.025Z,25.70
2023-03-18T00:18:09.190Z,26.50
2023-03-18T00:21:36.350Z,25.90
2023-03-18T00:25:03.385Z,26.00
2023-03-18T00:28:31.478Z,25.00
2023-03-18T00:31:58.600Z,26.60
2023-03-18T00:35:30.546Z,27.20
2023-03-18T00:38:58.541Z,25.20
2023-03-18T00:42:25.756Z,26.30
2023-03-18T00:45:53.400Z,24.80
2023-03-18T00:49:20.619Z,24.70
2023-03-18T00:52:47.992Z,24.80
2023-03-18T00:56:16.471Z,21.80
2023-03-18T00:59:44.351Z,23.40
2023-03-18T01:03:11.435Z,24.90
2023-03-18T01:06:39.336Z,23.90
2023-03-18T01:10:10.670Z,23.80
2023-03-18T01:13:38.756Z,23.80
2023-03-18T01:17:06.713Z,21.60
2023-03-18T01:20:34.034Z,23.80
2023-03-18T01:24:01.734Z,22.50
2023-03-18T01:27:29.398Z,23.70
2023-03-18T01:30:59.023Z,24.60
2023-03-18T01:34:26.283Z,21.00
2023-03-18T01:37:53.603Z,21.50
2023-03-18T01:41:21.733Z,21.90
2023-03-18T01:44:49.184Z,22.30
2023-03-18T01:48:20.368Z,19.10
2023-03-18T01:51:52.325Z,20.70
2023-03-18T01:55:21.813Z,21.30
2023-03-18T02:02:17.934Z,20.20
2023-03-18T02:05:46.289Z,20.70
2023-03-18T02:09:14.255Z,20.40
2023-03-18T02:12:45.593Z,21.00
2023-03-18T02:16:19.916Z,17.60
2023-03-18T02:19:58.074Z,20.80
2023-03-18T02:23:36.770Z,20.50
2023-03-18T02:27:08.091Z,20.60
2023-03-18T02:30:44.044Z,19.40
2023-03-18T02:34:12.968Z,18.10
2023-03-18T02:37:41.200Z,17.40
2023-03-18T02:41:12.977Z,17.10
2023-03-18T02:44:47.280Z,18.00
2023-03-18T02:48:37.797Z,18.10
2023-03-18T02:52:05.618Z,17.40
2023-03-18T02:55:32.724Z,14.90
2023-03-18T02:58:59.737Z,17.30
2023-03-18T03:02:27.192Z,17.90
2023-03-18T03:05:54.701Z,18.00
2023-03-18T03:09:23.025Z,17.90
2023-03-18T03:12:50.627Z,17.70
2023-03-18T03:16:19.381Z,17.20
2023-03-18T03:19:47.127Z,19.10
2023-03-18T03:23:16.811Z,19.10
2023-03-18T03:26:43.781Z,17.20
2023-03-18T03:30:14.774Z,18.20
2023-03-18T03:33:43.795Z,18.90
2023-03-18T03:37:11.256Z,17.20
2023-03-18T03:40:38.904Z,16.50
2023-03-18T03:44:06.291Z,17.40
2023-03-18T03:47:33.419Z,17.50
2023-03-18T03:51:00.892Z,16.40
2023-03-18T03:54:28.560Z,18.00
2023-03-18T03:57:55.728Z,16.40
2023-03-18T04:01:23.226Z,15.70
2023-03-18T04:04:50.717Z,16.70
2023-03-18T04:08:27.118Z,16.00
2023-03-18T04:11:54.466Z,16.30
2023-03-18T04:15:23.249Z,16.60
2023-03-18T04:18:51.769Z,14.30
2023-03-18T04:22:22.548Z,14.70
2023-03-18T04:25:49.606Z,16.30
2023-03-18T04:29:17.210Z,16.30
2023-03-18T04:32:44.674Z,17.30
2023-03-18T04:36:12.130Z,16.20
2023-03-18T04:39:39.489Z,18.30
2023-03-18T04:43:11.299Z,18.40
2023-03-18T04:46:39.237Z,16.80
2023-03-18T04:50:10.836Z,16.40
2023-03-18T04:53:38.046Z,15.50
2023-03-18T04:57:06.785Z,14.20
2023-03-18T05:00:36.692Z,14.50
2023-03-18T05:04:13.788Z,14.40
2023-03-18T05:07:46.480Z,13.50
2023-03-18T05:11:15.042Z,12.80
2023-03-18T05:14:42.995Z,13.10
2023-03-18T05:18:11.081Z,13.20
2023-03-18T05:21:39.563Z,13.10
2023-03-18T05:25:08.626Z,13.50
2023-03-18T05:28:36.609Z,14.30
2023-03-18T05:32:14.712Z,14.30
2023-03-18T05:35:42.508Z,12.80
2023-03-18T05:39:10.856Z,12.60
2023-03-18T05:42:53.548Z,13.30
2023-03-18T05:46:29.049Z,13.60
2023-03-18T05:50:16.727Z,13.70
2023-03-18T05:53:43.719Z,12.50
2023-03-18T05:57:18.505Z,13.20
2023-03-18T06:00:45.849Z,13.00
2023-03-18T06:04:13.722Z,14.30
2023-03-18T06:07:40.930Z,14.00
2023-03-18T06:11:08.227Z,13.90
2023-03-18T06:14:35.578Z,17.40
2023-03-18T06:18:02.785Z,14.10
2023-03-18T06:21:31.724Z,13.60
2023-03-18T06:24:59.476Z,12.30
2023-03-18T06:28:26.859Z,12.00
2023-03-18T06:31:54.261Z,12.50
2023-03-18T06:35:26.628Z,11.70
2023-03-18T06:42:20.614Z,11.90
2023-03-18T06:49:27.367Z,11.10
2023-03-18T06:53:00.455Z,11.00
2023-03-18T06:56:30.750Z,11.10
2023-03-18T07:00:09.136Z,10.70
2023-03-18T07:03:37.502Z,14.10
2023-03-18T07:07:05.942Z,11.50
2023-03-18T07:10:34.868Z,10.40
2023-03-18T07:14:08.033Z,11.60
2023-03-18T07:17:37.400Z,10.30
2023-03-18T07:21:05.394Z,10.60
2023-03-18T07:24:33.150Z,10.20
2023-03-18T07:28:01.376Z,9.70
2023-03-18T07:31:30.111Z,9.30
2023-03-18T07:34:57.734Z,10.90
2023-03-18T07:38:25.777Z,9.00
2023-03-18T07:41:52.924Z,9.10
2023-03-18T07:45:29.181Z,9.00
2023-03-18T07:48:56.292Z,8.70
2023-03-18T07:52:23.730Z,8.20
2023-03-18T07:55:51.094Z,12.70
2023-03-18T07:59:18.843Z,10.70
2023-03-18T08:02:46.123Z,7.90
2023-03-18T08:06:13.897Z,12.90
2023-03-18T08:09:41.261Z,11.20
2023-03-18T08:13:08.260Z,7.70
2023-03-18T08:16:35.404Z,8.00
2023-03-18T08:20:02.627Z,7.80
2023-03-18T08:23:29.769Z,7.70
2023-03-18T08:26:57.026Z,7.60
2023-03-18T08:30:28.559Z,7.10
2023-03-18T08:33:56.403Z,7.70
2023-03-18T08:37:23.532Z,7.80
2023-03-18T08:40:51.000Z,6.50
2023-03-18T08:44:18.031Z,7.90
2023-03-18T08:47:45.275Z,7.40
2023-03-18T08:51:12.336Z,7.80
2023-03-18T08:54:39.510Z,7.30
2023-03-18T08:58:07.573Z,7.40
2023-03-18T09:01:34.712Z,7.30
2023-03-18T09:05:01.828Z,8.60
2023-03-18T09:08:30.854Z,7.20
2023-03-18T09:11:58.055Z,7.80
2023-03-18T09:15:25.228Z,7.10
2023-03-18T09:18:52.337Z,7.00
2023-03-18T09:22:19.421Z,7.00
2023-03-18T09:25:46.881Z,7.40
2023-03-18T09:29:13.962Z,6.90
2023-03-18T09:32:41.174Z,7.10
2023-03-18T09:36:09.955Z,7.00
2023-03-18T09:39:37.379Z,7.20
2023-03-18T09:43:23.067Z,7.20
2023-03-18T09:47:05.913Z,8.20
2023-03-18T09:50:43.760Z,7.50
2023-03-18T09:54:15.240Z,10.20
2023-03-18T09:57:47.201Z,8.80
2023-03-18T10:01:16.790Z,10.30
2023-03-18T10:08:20.310Z,8.30
2023-03-18T10:11:49.665Z,10.20
2023-03-18T10:18:46.008Z,9.10
2023-03-18T10:22:28.264Z,8.30
2023-03-18T10:25:59.313Z,9.70
2023-03-18T10:29:37.340Z,9.60
2023-03-18T10:33:18.972Z,8.50
2023-03-18T10:36:57.320Z,8.00
2023-03-18T10:40:28.797Z,9.50
2023-03-18T10:43:58.466Z,7.90
2023-03-18T10:47:29.843Z,8.80
2023-03-18T10:51:05.128Z,24.10
2023-03-18T10:54:36.785Z,17.20
2023-03-18T10:58:12.710Z,9.80
2023-03-18T11:01:52.606Z,9.20
2023-03-18T11:05:26.248Z,10.80
2023-03-18T11:09:06.343Z,9.00
2023-03-18T11:12:36.388Z,9.00
2023-03-18T11:16:04.486Z,9.50
2023-03-18T11:19:33.874Z,7.70
2023-03-18T11:26:50.198Z,7.70
2023-03-18T11:30:33.678Z,8.70
2023-03-18T11:34:08.827Z,7.10
2023-03-18T11:37:37.800Z,7.00
2023-03-18T11:41:15.361Z,7.50
2023-03-18T11:44:42.554Z,6.30
2023-03-18T11:48:18.011Z,8.10
2023-03-18T11:51:51.116Z,7.00
2023-03-18T11:55:33.643Z,8.80
2023-03-18T11:59:22.211Z,8.10
2023-03-18T12:03:03.496Z,8.50
2023-03-18T12:06:32.110Z,7.40
2023-03-18T12:10:10.606Z,8.40
2023-03-18T12:13:53.460Z,8.20
2023-03-18T12:17:32.879Z,7.20
2023-03-18T12:21:07.022Z,8.10
2023-03-18T12:24:51.724Z,7.50
2023-03-18T12:28:32.087Z,6.90
2023-03-18T12:32:14.902Z,7.90
2023-03-18T12:35:51.828Z,7.20
2023-03-18T12:39:46.115Z,7.90
2023-03-18T12:43:43.260Z,7.50
2023-03-18T12:47:18.483Z,8.30
2023-03-18T12:50:48.699Z,7.90
2023-03-18T12:54:23.862Z,8.10
2023-03-18T12:57:56.491Z,8.10
2023-03-18T13:01:31.705Z,8.30
2023-03-18T13:05:05.838Z,7.00
2023-03-18T13:09:01.502Z,8.40
2023-03-18T13:12:33.650Z,8.60
2023-03-18T13:16:04.252Z,7.90
2023-03-18T13:19:33.831Z,8.50
2023-03-18T13:23:14.576Z,8.10
2023-03-18T13:27:10.442Z,8.00
2023-03-18T13:30:54.241Z,8.80
2023-03-18T13:34:45.843Z,8.40
2023-03-18T13:38:52.985Z,7.80
2023-03-18T13:42:26.986Z,9.50
2023-03-18T13:45:57.114Z,9.50
2023-03-18T13:49:27.253Z,9.20
2023-03-18T13:52:57.615Z,9.50
2023-03-18T13:56:47.774Z,9.00
2023-03-18T14:00:35.833Z,9.00
2023-03-18T14:04:21.397Z,9.60
2023-03-18T14:07:51.248Z,9.20
2023-03-18T14:11:53.858Z,8.90
2023-03-18T14:15:40.810Z,9.00
2023-03-18T14:19:17.380Z,9.30
2023-03-18T14:22:46.196Z,9.90
2023-03-18T14:26:24.104Z,9.80
2023-03-18T14:29:51.407Z,11.50
2023-03-18T14:33:36.532Z,9.40
2023-03-18T14:37:27.815Z,9.30
2023-03-18T14:40:58.212Z,9.20
2023-03-18T14:44:35.776Z,9.60
2023-03-18T14:48:06.678Z,9.40
2023-03-18T14:51:34.208Z,9.30
2023-03-18T14:55:07.823Z,10.00
2023-03-18T14:58:37.324Z,9.30
2023-03-18T15:02:10.018Z,9.60
2023-03-18T15:05:40.259Z,9.00
2023-03-18T15:09:10.477Z,9.60
2023-03-18T15:12:38.427Z,9.70
2023-03-18T15:16:10.834Z,9.90
2023-03-18T15:19:38.334Z,9.70
2023-03-18T15:23:09.144Z,9.50
2023-03-18T15:26:39.045Z,9.80
2023-03-18T15:30:11.827Z,10.30
2023-03-18T15:33:39.938Z,10.30
2023-03-18T15:37:34.204Z,9.60
2023-03-18T15:41:04.412Z,10.20
2023-03-18T15:44:34.167Z,12.20
2023-03-18T15:48:09.215Z,11.10
2023-03-18T15:51:45.003Z,10.60
2023-03-18T15:55:29.811Z,10.40
2023-03-18T15:59:09.001Z,12.00
2023-03-18T16:02:37.102Z,13.00
2023-03-18T16:06:05.419Z,15.40
2023-03-18T16:09:34.619Z,18.80
2023-03-18T16:13:04.486Z,19.10
2023-03-18T16:19:58.703Z,22.00
2023-03-18T16:23:26.071Z,18.30
2023-03-18T16:26:54.724Z,15.70
2023-03-18T16:30:24.676Z,14.80
2023-03-18T16:33:53.916Z,13.00
2023-03-18T16:37:25.717Z,14.20
2023-03-18T16:40:54.864Z,15.00
2023-03-18T16:44:23.914Z,15.10
2023-03-18T16:47:53.107Z,18.20
2023-03-18T16:51:20.189Z,21.90
2023-03-18T16:54:47.929Z,20.20
2023-03-18T16:58:17.886Z,20.80
2023-03-18T17:01:45.854Z,32.80
2023-03-18T17:05:17.459Z,36.30
2023-03-18T17:08:44.675Z,66.00
2023-03-18T17:12:16.032Z,40.80
2023-03-18T17:15:43.096Z,43.10
2023-03-18T17:19:15.471Z,40.70
2023-03-18T17:22:43.465Z,41.80
2023-03-18T17:26:15.868Z,40.10
2023-03-18T17:29:43.402Z,37.10
2023-03-18T17:33:22.311Z,32.50
2023-03-18T17:36:49.863Z,31.80
2023-03-18T17:40:20.177Z,37.10
2023-03-18T17:43:47.407Z,40.00
2023-03-18T17:47:15.295Z,43.30
2023-03-18T17:50:45.023Z,36.10
2023-03-18T17:54:14.888Z,36.00
2023-03-18T17:57:43.000Z,34.20
2023-03-18T18:01:15.382Z,40.70
2023-03-18T18:04:43.246Z,42.30
2023-03-18T18:08:15.270Z,50.10
2023-03-18T18:11:45.724Z,65.70
2023-03-18T18:15:22.952Z,52.00
2023-03-18T18:18:50.754Z,49.00
2023-03-18T18:22:22.629Z,48.50
2023-03-18T18:25:50.282Z,47.70
2023-03-18T18:29:21.271Z,53.60
2023-03-18T18:32:49.062Z,54.10
2023-03-18T18:36:18.278Z,55.80
2023-03-18T18:39:45.554Z,54.60
2023-03-18T18:43:13.343Z,56.30
2023-03-18T18:46:41.507Z,57.60
2023-03-18T18:50:16.920Z,56.20
2023-03-18T18:53:45.170Z,56.60
2023-03-18T18:57:28.324Z,58.00
2023-03-18T19:00:55.964Z,59.60
2023-03-18T19:04:23.735Z,65.70
2023-03-18T19:07:51.659Z,76.10
2023-03-18T19:11:19.016Z,68.80
2023-03-18T19:14:47.101Z,68.60
2023-03-18T19:18:19.973Z,66.70
2023-03-18T19:21:47.366Z,58.80
2023-03-18T19:25:16.541Z,55.50
2023-03-18T19:28:59.423Z,55.90
2023-03-18T19:32:27.389Z,59.40
2023-03-18T19:35:54.553Z,55.20
2023-03-18T19:39:22.927Z,53.90
2023-03-18T19:42:50.118Z,53.90
2023-03-18T19:46:21.035Z,59.80
2023-03-18T19:49:48.566Z,69.20
2023-03-18T19:53:17.729Z,70.20
2023-03-18T19:56:46.446Z,68.40
2023-03-18T20:00:24.250Z,70.50
2023-03-18T20:03:54.282Z,75.40
2023-03-18T20:07:24.662Z,78.30
2023-03-18T20:10:52.207Z,79.70
2023-03-18T20:14:28.444Z,78.70
2023-03-18T20:17:58.289Z,79.30
2023-03-18T20:21:29.601Z,77.00
2023-03-18T20:24:56.900Z,69.70
2023-03-18T20:28:26.202Z,65.50
2023-03-18T20:31:53.519Z,67.80
2023-03-18T20:35:21.467Z,67.40
2023-03-18T20:38:51.485Z,67.90
2023-03-18T20:42:19.278Z,68.70
2023-03-18T20:45:46.693Z,66.20
2023-03-18T20:49:16.124Z,69.60
2023-03-18T20:52:44.194Z,72.70
2023-03-18T20:56:12.175Z,67.60
2023-03-18T20:59:39.193Z,68.80
2023-03-18T21:03:18.849Z,68.20
2023-03-18T21:06:46.386Z,65.60
2023-03-18T21:10:18.798Z,66.80
2023-03-18T21:13:45.963Z,64.70
2023-03-18T21:17:20.578Z,63.20
2023-03-18T21:20:48.122Z,62.40
2023-03-18T21:24:26.340Z,63.80
2023-03-18T21:27:54.111Z,64.60
2023-03-18T21:31:28.155Z,66.00
2023-03-18T21:34:56.275Z,69.80
2023-03-18T21:38:23.581Z,68.30
2023-03-18T21:41:50.788Z,68.40
2023-03-18T21:45:20.403Z,66.20
2023-03-18T21:48:48.071Z,68.60
2023-03-18T21:52:20.424Z,69.50
2023-03-18T21:55:48.376Z,66.10
2023-03-18T21:59:15.600Z,63.20
2023-03-18T22:02:42.898Z,68.70
2023-03-18T22:06:15.223Z,70.90
2023-03-18T22:09:42.715Z,68.90
2023-03-18T22:13:19.528Z,74.40
2023-03-18T22:16:46.563Z,80.10
2023-03-18T22:20:15.691Z,81.00
2023-03-18T22:23:43.974Z,85.90
2023-03-18T22:27:19.910Z,87.40
2023-03-18T22:30:52.072Z,85.40
2023-03-18T22:34:24.270Z,78.60
2023-03-18T22:37:52.426Z,81.60
2023-03-18T22:41:24.004Z,86.60
2023-03-18T22:44:51.838Z,88.00
2023-03-18T22:48:20.202Z,85.40
2023-03-18T22:51:47.392Z,92.30
2023-03-18T22:55:22.080Z,95.70
2023-03-18T22:58:49.086Z,93.60
2023-03-18T23:02:20.327Z,100.70
2023-03-18T23:05:48.231Z,102.60
2023-03-18T23:09:15.378Z,97.30
2023-03-18T23:12:43.040Z,99.30
2023-03-18T23:16:14.862Z,102.70
2023-03-18T23:19:42.129Z,106.20
2023-03-18T23:23:09.736Z,103.80
2023-03-18T23:26:36.971Z,102.20
2023-03-18T23:30:04.312Z,100.20
2023-03-18T23:33:32.095Z,96.90
2023-03-18T23:36:59.171Z,97.10
2023-03-18T23:40:27.446Z,97.10
2023-03-18T23:43:54.689Z,94.30
2023-03-18T23:47:21.754Z,108.40
2023-03-18T23:50:49.632Z,101.10
2023-03-18T23:54:17.096Z,102.40
2023-03-18T23:57:44.391Z,100.10
